createdAt,value
2016-09-02T00:04:09.140Z,"  -72"
2016-09-02T00:09:06.097Z,"  -70"
2016-09-02T00:14:02.872Z,"  -72"
2016-09-02T00:18:59.528Z,"  -74"
2016-09-02T00:23:56.021Z,"  -69"
2016-09-02T00:28:53.507Z,"  -70"
2016-09-02T00:33:50.254Z,"  -71"
2016-09-02T00:38:46.938Z,"  -69"
2016-09-02T00:43:43.396Z,"  -68"
2016-09-02T00:48:39.878Z,"  -69"
2016-09-02T00:53:38.820Z,"  -69"
2016-09-02T00:58:35.151Z,"  -70"
2016-09-02T01:03:31.857Z,"  -70"
2016-09-02T01:08:28.647Z,"  -70"
2016-09-02T01:13:25.254Z,"  -70"
2016-09-02T01:18:21.939Z,"  -69"
2016-09-02T01:23:19.764Z,"  -69"
2016-09-02T01:28:15.972Z,"  -70"
2016-09-02T01:33:12.529Z,"  -70"
2016-09-02T01:38:10.155Z,"  -69"
2016-09-02T01:43:06.823Z,"  -70"
2016-09-02T01:48:03.459Z,"  -69"
2016-09-02T01:53:00.400Z,"  -69"
2016-09-02T01:57:56.998Z,"  -70"
2016-09-02T02:02:53.504Z,"  -70"
2016-09-02T02:07:49.867Z,"  -73"
2016-09-02T02:12:47.285Z,"  -70"
2016-09-02T02:17:44.243Z,"  -70"
2016-09-02T02:22:40.538Z,"  -69"
2016-09-02T02:27:37.085Z,"  -68"
2016-09-02T02:32:33.741Z,"  -70"
2016-09-02T02:37:30.499Z,"  -70"
2016-09-02T02:42:27.363Z,"  -69"
2016-09-02T02:47:24.227Z,"  -69"
2016-09-02T02:52:20.868Z,"  -70"
2016-09-02T02:57:17.815Z,"  -70"
2016-09-02T03:02:14.505Z,"  -68"
2016-09-02T03:07:10.976Z,"  -69"
2016-09-02T03:12:07.749Z,"  -70"
2016-09-02T03:17:04.419Z,"  -69"
2016-09-02T03:22:01.089Z,"  -69"
2016-09-02T03:26:57.468Z,"  -69"
2016-09-02T03:31:54.054Z,"  -69"
2016-09-02T03:36:50.863Z,"  -70"
2016-09-02T03:41:47.418Z,"  -71"
2016-09-02T03:46:43.964Z,"  -70"
2016-09-02T03:51:40.656Z,"  -71"
2016-09-02T03:56:37.079Z,"  -71"
2016-09-02T04:01:33.552Z,"  -70"
2016-09-02T04:06:30.694Z,"  -69"
2016-09-02T04:11:27.212Z,"  -68"
2016-09-02T04:16:23.743Z,"  -70"
2016-09-02T04:21:20.322Z,"  -69"
2016-09-02T04:26:17.002Z,"  -75"
2016-09-02T04:31:13.544Z,"  -69"
2016-09-02T04:36:10.135Z,"  -70"
2016-09-02T04:41:06.628Z,"  -70"
2016-09-02T04:46:05.811Z,"  -68"
2016-09-02T04:51:01.741Z,"  -67"
2016-09-02T04:55:59.426Z,"  -69"
2016-09-02T05:00:55.806Z,"  -68"
2016-09-02T05:05:52.588Z,"  -68"
2016-09-02T05:10:49.314Z,"  -69"
2016-09-02T05:15:45.870Z,"  -68"
2016-09-02T05:20:43.059Z,"  -70"
2016-09-02T05:25:40.008Z,"  -70"
2016-09-02T05:30:36.652Z,"  -70"
2016-09-02T05:35:33.243Z,"  -69"
2016-09-02T05:40:30.037Z,"  -69"
2016-09-02T05:45:26.754Z,"  -70"
2016-09-02T05:50:23.459Z,"  -69"
2016-09-02T05:55:20.123Z,"  -69"
2016-09-02T06:00:16.654Z,"  -68"
2016-09-02T06:05:13.990Z,"  -69"
2016-09-02T06:10:12.380Z,"  -70"
2016-09-02T06:15:08.894Z,"  -69"
2016-09-02T06:20:05.526Z,"  -68"
2016-09-02T06:25:02.561Z,"  -68"
2016-09-02T06:30:00.695Z,"  -69"
2016-09-02T06:34:56.836Z,"  -69"
2016-09-02T06:39:53.481Z,"  -75"
2016-09-02T06:44:50.632Z,"  -69"
2016-09-02T06:49:47.685Z,"  -66"
2016-09-02T06:54:44.523Z,"  -68"
2016-09-02T06:59:41.170Z,"  -67"
2016-09-02T07:04:39.601Z,"  -68"
2016-09-02T07:09:36.504Z,"  -65"
2016-09-02T07:14:33.316Z,"  -69"
2016-09-02T07:19:30.023Z,"  -72"
2016-09-02T07:24:26.701Z,"  -67"
2016-09-02T07:29:23.473Z,"  -72"
2016-09-02T07:34:20.307Z,"  -74"
2016-09-02T07:39:17.006Z,"  -75"
2016-09-02T07:44:13.895Z,"  -75"
2016-09-02T07:49:10.594Z,"  -72"
2016-09-02T07:54:07.431Z,"  -72"
2016-09-02T07:59:04.129Z,"  -72"
2016-09-02T08:04:00.784Z,"  -74"
2016-09-02T08:09:00.667Z,"  -72"
2016-09-02T08:13:57.193Z,"  -71"
2016-09-02T08:18:54.028Z,"  -73"
2016-09-02T08:23:50.854Z,"  -72"
2016-09-02T08:28:48.012Z,"  -70"
2016-09-02T08:33:44.201Z,"  -72"
2016-09-02T08:38:41.427Z,"  -73"
2016-09-02T08:43:40.858Z,"  -72"
2016-09-02T08:48:37.182Z,"  -72"
2016-09-02T08:53:33.802Z,"  -74"
2016-09-02T08:58:30.464Z,"  -73"
2016-09-02T09:03:27.224Z,"  -76"
2016-09-02T09:08:23.528Z,"  -72"
2016-09-02T09:13:20.039Z,"  -73"
2016-09-02T09:18:16.726Z,"  -74"
2016-09-02T09:23:13.091Z,"  -73"
2016-09-02T09:28:10.447Z,"  -74"
2016-09-02T09:33:06.825Z,"  -73"
2016-09-02T09:38:03.297Z,"  -75"
2016-09-02T09:43:00.032Z,"  -76"
2016-09-02T09:47:59.087Z,"  -77"
2016-09-02T09:52:55.062Z,"  -75"
2016-09-02T09:57:54.009Z,"  -76"
2016-09-02T10:02:50.060Z,"  -76"
2016-09-02T10:07:46.687Z,"  -76"
2016-09-02T10:12:43.450Z,"  -76"
2016-09-02T10:17:42.530Z,"  -76"
2016-09-02T10:22:39.127Z,"  -76"
2016-09-02T10:27:35.751Z,"  -76"
2016-09-02T10:32:32.267Z,"  -75"
2016-09-02T10:37:30.665Z,"  -76"
2016-09-02T10:42:26.964Z,"  -75"
2016-09-02T10:47:23.481Z,"  -75"
2016-09-02T10:52:20.151Z,"  -76"
2016-09-02T10:57:16.585Z,"  -75"
2016-09-02T11:02:13.343Z,"  -75"
2016-09-02T11:07:09.825Z,"  -75"
2016-09-02T11:12:06.614Z,"  -75"
2016-09-02T11:17:03.356Z,"  -75"
2016-09-02T11:22:00.165Z,"  -75"
2016-09-02T11:26:56.769Z,"  -75"
2016-09-02T11:31:53.793Z,"  -74"
2016-09-02T11:36:50.535Z,"  -74"
2016-09-02T11:41:47.340Z,"  -74"
2016-09-02T11:46:43.902Z,"  -74"
2016-09-02T11:51:41.013Z,"  -74"
2016-09-02T11:56:37.657Z,"  -75"
2016-09-02T12:01:34.439Z,"  -73"
2016-09-02T12:06:33.727Z,"  -74"
2016-09-02T12:11:30.000Z,"  -74"
2016-09-02T12:16:26.613Z,"  -73"
2016-09-02T12:21:23.259Z,"  -73"
2016-09-02T12:26:22.951Z,"  -74"
2016-09-02T12:31:18.956Z,"  -74"
2016-09-02T12:36:15.683Z,"  -73"
2016-09-02T12:41:15.149Z,"  -73"
2016-09-02T12:46:11.097Z,"  -75"
2016-09-02T12:51:07.621Z,"  -73"
2016-09-02T12:56:04.652Z,"  -73"
2016-09-02T13:01:01.204Z,"  -74"
2016-09-02T13:06:00.369Z,"  -75"
2016-09-02T13:10:56.600Z,"  -73"
2016-09-02T13:15:53.250Z,"  -74"
2016-09-02T13:20:49.771Z,"  -73"
2016-09-02T13:25:46.422Z,"  -74"
2016-09-02T13:30:44.175Z,"  -71"
2016-09-02T13:35:40.399Z,"  -71"
2016-09-02T13:40:37.156Z,"  -70"
2016-09-02T13:45:34.966Z,"  -71"
2016-09-02T13:50:31.602Z,"  -70"
2016-09-02T13:55:28.424Z,"  -74"
2016-09-02T14:00:24.812Z,"  -74"
2016-09-02T14:05:21.499Z,"  -75"
2016-09-02T14:10:18.150Z,"  -76"
2016-09-02T14:15:14.956Z,"  -75"
2016-09-02T14:20:11.594Z,"  -76"
2016-09-02T14:25:08.287Z,"  -75"
2016-09-02T14:30:05.300Z,"  -70"
2016-09-02T14:35:02.065Z,"  -69"
2016-09-02T14:39:58.933Z,"  -70"
2016-09-02T14:44:56.553Z,"  -70"
2016-09-02T14:49:59.293Z,"  -76"
2016-09-02T14:54:54.948Z,"  -73"
2016-09-02T14:59:51.807Z,"  -75"
2016-09-02T15:04:48.465Z,"  -76"
2016-09-02T15:09:45.140Z,"  -75"
2016-09-02T15:14:41.730Z,"  -76"
2016-09-02T15:19:38.363Z,"  -76"
2016-09-02T15:24:35.172Z,"  -76"
2016-09-02T15:29:31.827Z,"  -76"
2016-09-02T15:34:28.317Z,"  -71"
2016-09-02T15:39:25.039Z,"  -76"
2016-09-02T15:44:24.079Z,"  -71"
2016-09-02T15:49:20.118Z,"  -79"
2016-09-02T15:54:16.614Z,"  -71"
2016-09-02T15:59:13.469Z,"  -73"
2016-09-02T16:04:09.988Z,"  -75"
2016-09-02T16:09:09.123Z,"  -72"
2016-09-02T16:14:05.177Z,"  -73"
2016-09-02T16:19:01.828Z,"  -72"
2016-09-02T16:23:59.307Z,"  -72"
2016-09-02T16:28:55.965Z,"  -72"
2016-09-02T16:33:52.716Z,"  -72"
2016-09-02T16:38:49.796Z,"  -73"
2016-09-02T16:43:46.231Z,"  -73"
2016-09-02T16:48:42.973Z,"  -72"
2016-09-02T16:53:40.062Z,"  -73"
2016-09-02T16:58:36.942Z,"  -73"
2016-09-02T17:03:33.697Z,"  -73"
2016-09-02T17:08:30.198Z,"  -68"
2016-09-02T17:13:27.366Z,"  -70"
2016-09-02T17:18:23.958Z,"  -69"
2016-09-02T17:23:21.828Z,"  -72"
2016-09-02T17:28:18.230Z,"  -71"
2016-09-02T17:33:14.792Z,"  -72"
2016-09-02T17:38:11.569Z,"  -70"
2016-09-02T17:43:08.680Z,"  -69"
2016-09-02T17:48:05.207Z,"  -72"
2016-09-02T17:53:02.253Z,"  -69"
2016-09-02T17:57:59.379Z,"  -70"
2016-09-02T18:02:58.458Z,"  -71"
2016-09-02T18:07:54.282Z,"  -69"
2016-09-02T18:12:50.676Z,"  -70"
2016-09-02T18:17:47.501Z,"  -69"
2016-09-02T18:22:44.127Z,"  -71"
2016-09-02T18:27:40.884Z,"  -70"
2016-09-02T18:32:39.927Z,"  -70"
2016-09-02T18:37:36.127Z,"  -71"
2016-09-02T18:42:34.893Z,"  -70"
2016-09-02T18:47:30.927Z,"  -69"
2016-09-02T18:52:27.684Z,"  -69"
2016-09-02T18:57:24.221Z,"  -69"
2016-09-02T19:02:21.495Z,"  -70"
2016-09-02T19:07:18.282Z,"  -70"
2016-09-02T19:12:15.866Z,"  -68"
2016-09-02T19:17:12.399Z,"  -69"
2016-09-02T19:22:08.772Z,"  -70"
2016-09-02T19:27:06.129Z,"  -69"
2016-09-02T19:32:03.035Z,"  -69"
2016-09-02T19:36:59.853Z,"  -68"
2016-09-02T19:41:56.503Z,"  -69"
2016-09-02T19:46:53.348Z,"  -69"
2016-09-02T19:51:50.103Z,"  -70"
2016-09-02T19:56:46.852Z,"  -69"
2016-09-02T20:01:43.465Z,"  -71"
2016-09-02T20:06:40.513Z,"  -69"
2016-09-02T20:11:37.154Z,"  -70"
2016-09-02T20:16:34.671Z,"  -70"
2016-09-02T20:21:33.645Z,"  -70"
2016-09-02T20:26:29.705Z,"  -71"
2016-09-02T20:31:26.534Z,"  -70"
2016-09-02T20:36:23.036Z,"  -70"
2016-09-02T20:41:20.962Z,"  -70"
2016-09-02T20:46:17.378Z,"  -70"
2016-09-02T20:51:14.313Z,"  -72"
2016-09-02T20:56:11.516Z,"  -74"
2016-09-02T21:01:11.092Z,"  -73"
2016-09-02T21:06:07.296Z,"  -71"
2016-09-02T21:11:04.192Z,"  -71"
2016-09-02T21:16:00.899Z,"  -72"
2016-09-02T21:20:57.636Z,"  -74"
2016-09-02T21:25:54.307Z,"  -72"
2016-09-02T21:30:51.100Z,"  -72"
2016-09-02T21:35:48.253Z,"  -71"
2016-09-02T21:40:44.758Z,"  -73"
2016-09-02T21:45:43.927Z,"  -73"
2016-09-02T21:50:39.915Z,"  -76"
2016-09-02T21:55:36.953Z,"  -71"
2016-09-02T22:00:33.706Z,"  -71"
2016-09-02T22:05:30.343Z,"  -72"
2016-09-02T22:10:27.265Z,"  -70"
2016-09-02T22:15:23.784Z,"  -69"
2016-09-02T22:20:20.455Z,"  -69"
2016-09-02T22:25:17.075Z,"  -70"
2016-09-02T22:30:13.747Z,"  -73"
2016-09-02T22:35:10.705Z,"  -71"
2016-09-02T22:40:07.264Z,"  -70"
2016-09-02T22:45:04.363Z,"  -72"
2016-09-02T22:50:00.960Z,"  -72"
2016-09-02T22:54:57.574Z,"  -71"
2016-09-02T22:59:54.566Z,"  -70"
2016-09-02T23:04:51.324Z,"  -70"
2016-09-02T23:09:48.006Z,"  -70"
2016-09-02T23:14:44.429Z,"  -70"
2016-09-02T23:19:41.129Z,"  -71"
2016-09-02T23:24:37.996Z,"  -70"
2016-09-02T23:44:40.659Z,"  -69"
2016-09-02T23:49:37.252Z,"  -72"
2016-09-02T23:54:33.616Z,"  -73"
2016-09-02T23:59:30.176Z,"  -72"
